sensor_id;sensor_type;location;lat;lon;timestamp;P1;durP1;ratioP1;P2;durP2;ratioP2
79015;SDS011;72726;44.842;37.556;2023-09-30T00:00:07;14.23;;;5.07;;
79015;SDS011;72726;44.842;37.556;2023-09-30T00:01:12;12.65;;;4.97;;
79015;SDS011;72726;44.842;37.556;2023-09-30T00:02:15;10.38;;;4.05;;
79015;SDS011;72726;44.842;37.556;2023-09-30T00:03:16;12.52;;;4.70;;
79015;SDS011;72726;44.842;37.556;2023-09-30T00:04:18;16.65;;;5.07;;
79015;SDS011;72726;44.842;37.556;2023-09-30T00:05:19;12.90;;;4.43;;
79015;SDS011;72726;44.842;37.556;2023-09-30T00:06:20;15.27;;;5.03;;
79015;SDS011;72726;44.842;37.556;2023-09-30T00:07:22;18.02;;;4.78;;
79015;SDS011;72726;44.842;37.556;2023-09-30T00:08:23;12.65;;;4.30;;
79015;SDS011;72726;44.842;37.556;2023-09-30T00:09:25;11.38;;;4.30;;
79015;SDS011;72726;44.842;37.556;2023-09-30T00:10:27;11.55;;;4.35;;
79015;SDS011;72726;44.842;37.556;2023-09-30T00:11:28;13.70;;;5.03;;
79015;SDS011;72726;44.842;37.556;2023-09-30T00:12:30;12.63;;;4.45;;
79015;SDS011;72726;44.842;37.556;2023-09-30T00:13:31;11.57;;;5.00;;
79015;SDS011;72726;44.842;37.556;2023-09-30T00:14:33;16.73;;;4.80;;
79015;SDS011;72726;44.842;37.556;2023-09-30T00:15:34;12.13;;;4.80;;
79015;SDS011;72726;44.842;37.556;2023-09-30T00:16:35;16.58;;;4.97;;
79015;SDS011;72726;44.842;37.556;2023-09-30T00:17:37;19.13;;;5.32;;
79015;SDS011;72726;44.842;37.556;2023-09-30T00:18:38;13.15;;;5.38;;
79015;SDS011;72726;44.842;37.556;2023-09-30T00:19:39;12.38;;;4.75;;
79015;SDS011;72726;44.842;37.556;2023-09-30T00:20:41;19.67;;;5.38;;
79015;SDS011;72726;44.842;37.556;2023-09-30T00:21:43;17.42;;;4.97;;
79015;SDS011;72726;44.842;37.556;2023-09-30T00:22:44;12.55;;;5.07;;
79015;SDS011;72726;44.842;37.556;2023-09-30T00:23:46;12.20;;;4.72;;
79015;SDS011;72726;44.842;37.556;2023-09-30T00:24:47;11.82;;;5.03;;
79015;SDS011;72726;44.842;37.556;2023-09-30T00:25:49;14.07;;;4.63;;
79015;SDS011;72726;44.842;37.556;2023-09-30T00:26:51;11.60;;;4.63;;
79015;SDS011;72726;44.842;37.556;2023-09-30T00:27:52;11.73;;;4.78;;
79015;SDS011;72726;44.842;37.556;2023-09-30T00:28:55;10.30;;;4.07;;
79015;SDS011;72726;44.842;37.556;2023-09-30T00:29:57;11.30;;;4.25;;
79015;SDS011;72726;44.842;37.556;2023-09-30T00:30:58;14.48;;;4.65;;
79015;SDS011;72726;44.842;37.556;2023-09-30T00:31:59;16.75;;;4.97;;
79015;SDS011;72726;44.842;37.556;2023-09-30T00:46:32;16.80;;;4.68;;
79015;SDS011;72726;44.842;37.556;2023-09-30T00:47:37;11.85;;;3.80;;
79015;SDS011;72726;44.842;37.556;2023-09-30T00:48:38;12.90;;;3.97;;
79015;SDS011;72726;44.842;37.556;2023-09-30T00:49:40;10.30;;;3.90;;
79015;SDS011;72726;44.842;37.556;2023-09-30T00:50:44;10.18;;;3.63;;
79015;SDS011;72726;44.842;37.556;2023-09-30T00:51:46;13.68;;;3.80;;
79015;SDS011;72726;44.842;37.556;2023-09-30T00:52:48;9.43;;;3.92;;
79015;SDS011;72726;44.842;37.556;2023-09-30T00:53:51;14.27;;;3.97;;
79015;SDS011;72726;44.842;37.556;2023-09-30T00:54:53;14.90;;;5.68;;
79015;SDS011;72726;44.842;37.556;2023-09-30T00:55:56;14.80;;;4.30;;
79015;SDS011;72726;44.842;37.556;2023-09-30T00:56:58;13.70;;;4.85;;
79015;SDS011;72726;44.842;37.556;2023-09-30T00:58:01;12.68;;;4.03;;
79015;SDS011;72726;44.842;37.556;2023-09-30T00:59:03;12.73;;;4.40;;
79015;SDS011;72726;44.842;37.556;2023-09-30T01:00:05;9.77;;;4.05;;
79015;SDS011;72726;44.842;37.556;2023-09-30T01:01:07;12.10;;;4.03;;
79015;SDS011;72726;44.842;37.556;2023-09-30T01:02:12;8.75;;;3.70;;
79015;SDS011;72726;44.842;37.556;2023-09-30T01:03:14;14.13;;;3.78;;
79015;SDS011;72726;44.842;37.556;2023-09-30T01:04:15;10.98;;;3.97;;
79015;SDS011;72726;44.842;37.556;2023-09-30T01:05:17;13.55;;;3.92;;
79015;SDS011;72726;44.842;37.556;2023-09-30T01:06:18;12.73;;;4.43;;
79015;SDS011;72726;44.842;37.556;2023-09-30T01:07:21;17.17;;;4.55;;
79015;SDS011;72726;44.842;37.556;2023-09-30T01:08:23;14.80;;;4.20;;
79015;SDS011;72726;44.842;37.556;2023-09-30T01:09:25;14.63;;;4.13;;
79015;SDS011;72726;44.842;37.556;2023-09-30T01:10:26;14.68;;;4.05;;
79015;SDS011;72726;44.842;37.556;2023-09-30T01:11:28;14.73;;;4.35;;
79015;SDS011;72726;44.842;37.556;2023-09-30T01:12:30;13.35;;;4.05;;
79015;SDS011;72726;44.842;37.556;2023-09-30T01:13:33;18.27;;;4.40;;
79015;SDS011;72726;44.842;37.556;2023-09-30T01:14:38;12.77;;;4.07;;
79015;SDS011;72726;44.842;37.556;2023-09-30T01:15:41;12.68;;;3.92;;
79015;SDS011;72726;44.842;37.556;2023-09-30T01:16:42;10.10;;;4.00;;
79015;SDS011;72726;44.842;37.556;2023-09-30T01:17:44;11.80;;;4.43;;
79015;SDS011;72726;44.842;37.556;2023-09-30T01:18:45;12.27;;;4.03;;
79015;SDS011;72726;44.842;37.556;2023-09-30T01:19:46;12.00;;;3.67;;
79015;SDS011;72726;44.842;37.556;2023-09-30T01:20:48;10.45;;;3.83;;
79015;SDS011;72726;44.842;37.556;2023-09-30T01:21:54;13.73;;;4.20;;
79015;SDS011;72726;44.842;37.556;2023-09-30T01:22:59;12.90;;;4.20;;
79015;SDS011;72726;44.842;37.556;2023-09-30T01:24:03;11.73;;;3.95;;
79015;SDS011;72726;44.842;37.556;2023-09-30T01:25:10;11.90;;;4.15;;
79015;SDS011;72726;44.842;37.556;2023-09-30T01:26:12;14.10;;;3.60;;
79015;SDS011;72726;44.842;37.556;2023-09-30T01:27:14;12.30;;;3.88;;
79015;SDS011;72726;44.842;37.556;2023-09-30T01:28:20;14.98;;;3.63;;
79015;SDS011;72726;44.842;37.556;2023-09-30T01:29:21;13.82;;;3.97;;
79015;SDS011;72726;44.842;37.556;2023-09-30T01:30:23;13.18;;;3.67;;
79015;SDS011;72726;44.842;37.556;2023-09-30T01:31:24;14.30;;;3.70;;
79015;SDS011;72726;44.842;37.556;2023-09-30T01:32:26;10.50;;;4.38;;
79015;SDS011;72726;44.842;37.556;2023-09-30T01:33:28;16.83;;;4.18;;
79015;SDS011;72726;44.842;37.556;2023-09-30T01:34:29;13.73;;;4.00;;
79015;SDS011;72726;44.842;37.556;2023-09-30T01:35:30;10.55;;;4.10;;
79015;SDS011;72726;44.842;37.556;2023-09-30T01:36:32;11.50;;;3.88;;
79015;SDS011;72726;44.842;37.556;2023-09-30T01:37:34;14.57;;;4.35;;
79015;SDS011;72726;44.842;37.556;2023-09-30T01:38:35;12.73;;;3.78;;
79015;SDS011;72726;44.842;37.556;2023-09-30T01:39:37;14.63;;;4.07;;
79015;SDS011;72726;44.842;37.556;2023-09-30T01:40:39;16.02;;;4.90;;
79015;SDS011;72726;44.842;37.556;2023-09-30T01:41:40;10.40;;;3.67;;
79015;SDS011;72726;44.842;37.556;2023-09-30T01:42:42;11.27;;;4.25;;
79015;SDS011;72726;44.842;37.556;2023-09-30T01:43:43;13.02;;;4.20;;
79015;SDS011;72726;44.842;37.556;2023-09-30T01:44:45;9.32;;;3.47;;
79015;SDS011;72726;44.842;37.556;2023-09-30T01:45:46;14.07;;;4.07;;
79015;SDS011;72726;44.842;37.556;2023-09-30T01:46:48;10.82;;;4.13;;
79015;SDS011;72726;44.842;37.556;2023-09-30T01:47:49;12.70;;;4.07;;
79015;SDS011;72726;44.842;37.556;2023-09-30T01:48:51;10.27;;;3.83;;
79015;SDS011;72726;44.842;37.556;2023-09-30T01:49:52;10.70;;;4.45;;
79015;SDS011;72726;44.842;37.556;2023-09-30T01:50:54;11.30;;;3.65;;
79015;SDS011;72726;44.842;37.556;2023-09-30T01:51:55;16.33;;;3.92;;
79015;SDS011;72726;44.842;37.556;2023-09-30T01:52:56;14.38;;;4.45;;
79015;SDS011;72726;44.842;37.556;2023-09-30T01:54:00;10.73;;;3.80;;
79015;SDS011;72726;44.842;37.556;2023-09-30T01:55:01;14.00;;;4.00;;
79015;SDS011;72726;44.842;37.556;2023-09-30T01:56:03;12.32;;;4.00;;
79015;SDS011;72726;44.842;37.556;2023-09-30T01:57:04;15.02;;;4.00;;
79015;SDS011;72726;44.842;37.556;2023-09-30T01:58:05;9.50;;;3.50;;
79015;SDS011;72726;44.842;37.556;2023-09-30T01:59:08;13.60;;;4.63;;
79015;SDS011;72726;44.842;37.556;2023-09-30T02:00:09;11.18;;;4.22;;
79015;SDS011;72726;44.842;37.556;2023-09-30T02:01:17;10.10;;;3.33;;
79015;SDS011;72726;44.842;37.556;2023-09-30T02:02:18;8.77;;;3.47;;
79015;SDS011;72726;44.842;37.556;2023-09-30T02:03:20;13.90;;;4.05;;
79015;SDS011;72726;44.842;37.556;2023-09-30T02:04:22;14.63;;;4.10;;
79015;SDS011;72726;44.842;37.556;2023-09-30T02:05:24;10.50;;;4.20;;
79015;SDS011;72726;44.842;37.556;2023-09-30T02:06:25;12.02;;;3.78;;
79015;SDS011;72726;44.842;37.556;2023-09-30T02:07:26;13.77;;;3.58;;
79015;SDS011;72726;44.842;37.556;2023-09-30T02:08:28;13.07;;;4.05;;
79015;SDS011;72726;44.842;37.556;2023-09-30T02:09:30;12.15;;;4.10;;
79015;SDS011;72726;44.842;37.556;2023-09-30T02:10:32;9.85;;;3.78;;
79015;SDS011;72726;44.842;37.556;2023-09-30T02:11:37;10.27;;;3.60;;
79015;SDS011;72726;44.842;37.556;2023-09-30T02:13:43;15.50;;;4.22;;
79015;SDS011;72726;44.842;37.556;2023-09-30T02:14:45;10.18;;;3.42;;
79015;SDS011;72726;44.842;37.556;2023-09-30T02:15:49;11.70;;;3.53;;
79015;SDS011;72726;44.842;37.556;2023-09-30T02:16:50;13.63;;;4.00;;
79015;SDS011;72726;44.842;37.556;2023-09-30T02:17:52;7.88;;;3.10;;
79015;SDS011;72726;44.842;37.556;2023-09-30T02:18:53;11.43;;;3.90;;
79015;SDS011;72726;44.842;37.556;2023-09-30T02:19:54;14.23;;;3.63;;
79015;SDS011;72726;44.842;37.556;2023-09-30T02:20:56;11.05;;;3.58;;
79015;SDS011;72726;44.842;37.556;2023-09-30T02:21:57;14.35;;;3.67;;
79015;SDS011;72726;44.842;37.556;2023-09-30T02:23:00;16.52;;;4.30;;
79015;SDS011;72726;44.842;37.556;2023-09-30T02:24:03;11.60;;;3.78;;
79015;SDS011;72726;44.842;37.556;2023-09-30T02:25:07;16.35;;;3.95;;
79015;SDS011;72726;44.842;37.556;2023-09-30T02:26:09;13.32;;;3.75;;
79015;SDS011;72726;44.842;37.556;2023-09-30T02:27:10;11.88;;;3.30;;
79015;SDS011;72726;44.842;37.556;2023-09-30T02:28:12;15.15;;;3.55;;
79015;SDS011;72726;44.842;37.556;2023-09-30T02:29:13;12.93;;;4.00;;
79015;SDS011;72726;44.842;37.556;2023-09-30T02:30:15;16.30;;;3.90;;
79015;SDS011;72726;44.842;37.556;2023-09-30T02:31:18;12.60;;;3.78;;
79015;SDS011;72726;44.842;37.556;2023-09-30T02:32:20;16.88;;;4.03;;
79015;SDS011;72726;44.842;37.556;2023-09-30T02:33:21;10.82;;;3.78;;
79015;SDS011;72726;44.842;37.556;2023-09-30T02:34:23;10.73;;;3.45;;
79015;SDS011;72726;44.842;37.556;2023-09-30T02:35:24;13.18;;;3.72;;
79015;SDS011;72726;44.842;37.556;2023-09-30T02:36:27;10.05;;;3.35;;
79015;SDS011;72726;44.842;37.556;2023-09-30T02:37:28;10.35;;;3.42;;
79015;SDS011;72726;44.842;37.556;2023-09-30T02:38:29;12.88;;;3.83;;
79015;SDS011;72726;44.842;37.556;2023-09-30T02:39:31;11.70;;;3.83;;
79015;SDS011;72726;44.842;37.556;2023-09-30T02:40:32;15.77;;;4.25;;
79015;SDS011;72726;44.842;37.556;2023-09-30T02:41:35;9.73;;;3.72;;
79015;SDS011;72726;44.842;37.556;2023-09-30T02:42:37;8.68;;;3.35;;
79015;SDS011;72726;44.842;37.556;2023-09-30T02:43:38;8.18;;;3.42;;
79015;SDS011;72726;44.842;37.556;2023-09-30T02:44:40;8.35;;;3.20;;
79015;SDS011;72726;44.842;37.556;2023-09-30T02:45:41;9.60;;;3.60;;
79015;SDS011;72726;44.842;37.556;2023-09-30T02:46:42;13.35;;;3.58;;
79015;SDS011;72726;44.842;37.556;2023-09-30T02:47:43;11.20;;;4.07;;
79015;SDS011;72726;44.842;37.556;2023-09-30T02:48:45;8.85;;;3.33;;
79015;SDS011;72726;44.842;37.556;2023-09-30T02:49:46;13.38;;;3.05;;
79015;SDS011;72726;44.842;37.556;2023-09-30T02:50:48;13.52;;;3.58;;
79015;SDS011;72726;44.842;37.556;2023-09-30T02:51:49;7.97;;;3.53;;
79015;SDS011;72726;44.842;37.556;2023-09-30T02:52:51;11.73;;;3.67;;
79015;SDS011;72726;44.842;37.556;2023-09-30T02:53:53;13.73;;;3.58;;
79015;SDS011;72726;44.842;37.556;2023-09-30T02:54:54;9.00;;;3.20;;
79015;SDS011;72726;44.842;37.556;2023-09-30T02:55:58;11.27;;;3.55;;
79015;SDS011;72726;44.842;37.556;2023-09-30T02:57:00;11.50;;;3.53;;
79015;SDS011;72726;44.842;37.556;2023-09-30T02:58:06;12.13;;;3.78;;
79015;SDS011;72726;44.842;37.556;2023-09-30T02:59:08;11.15;;;3.65;;
79015;SDS011;72726;44.842;37.556;2023-09-30T03:00:10;8.38;;;3.80;;
79015;SDS011;72726;44.842;37.556;2023-09-30T03:01:24;11.68;;;3.60;;
79015;SDS011;72726;44.842;37.556;2023-09-30T03:02:25;10.45;;;3.83;;
79015;SDS011;72726;44.842;37.556;2023-09-30T03:03:27;10.32;;;3.58;;
79015;SDS011;72726;44.842;37.556;2023-09-30T03:04:29;12.05;;;3.50;;
79015;SDS011;72726;44.842;37.556;2023-09-30T03:05:31;9.63;;;3.13;;
79015;SDS011;72726;44.842;37.556;2023-09-30T03:06:35;14.00;;;3.83;;
79015;SDS011;72726;44.842;37.556;2023-09-30T03:07:39;14.32;;;3.88;;
79015;SDS011;72726;44.842;37.556;2023-09-30T03:08:42;13.38;;;3.40;;
79015;SDS011;72726;44.842;37.556;2023-09-30T03:09:44;12.57;;;3.50;;
79015;SDS011;72726;44.842;37.556;2023-09-30T03:10:45;10.27;;;3.42;;
79015;SDS011;72726;44.842;37.556;2023-09-30T03:11:47;13.48;;;3.58;;
79015;SDS011;72726;44.842;37.556;2023-09-30T03:12:49;14.48;;;3.88;;
79015;SDS011;72726;44.842;37.556;2023-09-30T03:13:51;9.07;;;3.33;;
79015;SDS011;72726;44.842;37.556;2023-09-30T03:14:53;8.10;;;3.42;;
79015;SDS011;72726;44.842;37.556;2023-09-30T03:15:54;17.42;;;4.05;;
79015;SDS011;72726;44.842;37.556;2023-09-30T03:16:58;13.68;;;3.40;;
79015;SDS011;72726;44.842;37.556;2023-09-30T03:18:00;12.38;;;3.83;;
79015;SDS011;72726;44.842;37.556;2023-09-30T03:19:01;17.23;;;3.97;;
79015;SDS011;72726;44.842;37.556;2023-09-30T03:20:09;9.63;;;3.90;;
79015;SDS011;72726;44.842;37.556;2023-09-30T03:21:15;12.40;;;4.00;;
79015;SDS011;72726;44.842;37.556;2023-09-30T03:22:16;20.75;;;3.53;;
79015;SDS011;72726;44.842;37.556;2023-09-30T03:23:18;11.35;;;3.95;;
79015;SDS011;72726;44.842;37.556;2023-09-30T03:24:20;11.82;;;3.25;;
79015;SDS011;72726;44.842;37.556;2023-09-30T03:25:22;9.20;;;3.50;;
79015;SDS011;72726;44.842;37.556;2023-09-30T03:26:24;13.13;;;3.55;;
79015;SDS011;72726;44.842;37.556;2023-09-30T03:27:25;12.05;;;3.50;;
79015;SDS011;72726;44.842;37.556;2023-09-30T03:28:26;8.68;;;3.20;;
79015;SDS011;72726;44.842;37.556;2023-09-30T03:29:28;9.15;;;3.38;;
79015;SDS011;72726;44.842;37.556;2023-09-30T03:30:29;12.20;;;3.10;;
79015;SDS011;72726;44.842;37.556;2023-09-30T03:31:31;11.55;;;3.15;;
79015;SDS011;72726;44.842;37.556;2023-09-30T03:32:33;11.10;;;3.75;;
79015;SDS011;72726;44.842;37.556;2023-09-30T03:33:34;11.45;;;3.53;;
79015;SDS011;72726;44.842;37.556;2023-09-30T03:34:36;14.23;;;3.67;;
79015;SDS011;72726;44.842;37.556;2023-09-30T03:35:37;13.63;;;4.13;;
79015;SDS011;72726;44.842;37.556;2023-09-30T03:36:38;13.32;;;3.47;;
79015;SDS011;72726;44.842;37.556;2023-09-30T03:37:42;12.77;;;3.70;;
79015;SDS011;72726;44.842;37.556;2023-09-30T03:38:47;21.67;;;4.25;;
79015;SDS011;72726;44.842;37.556;2023-09-30T03:39:49;9.38;;;3.90;;
79015;SDS011;72726;44.842;37.556;2023-09-30T03:40:50;11.35;;;3.33;;
79015;SDS011;72726;44.842;37.556;2023-09-30T03:41:51;13.38;;;3.92;;
79015;SDS011;72726;44.842;37.556;2023-09-30T03:42:53;10.68;;;3.15;;
79015;SDS011;72726;44.842;37.556;2023-09-30T03:43:54;12.00;;;3.50;;
79015;SDS011;72726;44.842;37.556;2023-09-30T03:44:56;11.05;;;3.25;;
79015;SDS011;72726;44.842;37.556;2023-09-30T03:45:57;12.57;;;3.63;;
79015;SDS011;72726;44.842;37.556;2023-09-30T03:46:58;12.75;;;4.32;;
79015;SDS011;72726;44.842;37.556;2023-09-30T03:48:00;9.30;;;3.40;;
79015;SDS011;72726;44.842;37.556;2023-09-30T03:49:03;10.27;;;3.00;;
79015;SDS011;72726;44.842;37.556;2023-09-30T03:50:04;11.40;;;3.65;;
79015;SDS011;72726;44.842;37.556;2023-09-30T03:51:09;9.98;;;3.42;;
79015;SDS011;72726;44.842;37.556;2023-09-30T03:52:14;12.23;;;3.45;;
79015;SDS011;72726;44.842;37.556;2023-09-30T03:53:15;13.00;;;3.75;;
79015;SDS011;72726;44.842;37.556;2023-09-30T03:54:17;10.98;;;4.57;;
79015;SDS011;72726;44.842;37.556;2023-09-30T03:55:18;10.02;;;3.92;;
79015;SDS011;72726;44.842;37.556;2023-09-30T03:56:21;10.25;;;3.60;;
79015;SDS011;72726;44.842;37.556;2023-09-30T03:57:23;9.55;;;3.40;;
79015;SDS011;72726;44.842;37.556;2023-09-30T03:58:24;8.50;;;3.33;;
79015;SDS011;72726;44.842;37.556;2023-09-30T03:59:26;10.45;;;3.15;;
79015;SDS011;72726;44.842;37.556;2023-09-30T04:00:27;9.50;;;3.33;;
79015;SDS011;72726;44.842;37.556;2023-09-30T04:01:29;10.65;;;3.20;;
79015;SDS011;72726;44.842;37.556;2023-09-30T04:02:32;12.20;;;3.50;;
79015;SDS011;72726;44.842;37.556;2023-09-30T04:03:33;14.30;;;3.42;;
79015;SDS011;72726;44.842;37.556;2023-09-30T04:04:40;12.85;;;3.50;;
79015;SDS011;72726;44.842;37.556;2023-09-30T04:05:41;12.95;;;3.70;;
79015;SDS011;72726;44.842;37.556;2023-09-30T04:06:42;9.30;;;3.10;;
79015;SDS011;72726;44.842;37.556;2023-09-30T04:07:43;13.02;;;3.72;;
79015;SDS011;72726;44.842;37.556;2023-09-30T04:08:45;10.68;;;3.70;;
79015;SDS011;72726;44.842;37.556;2023-09-30T04:09:47;15.25;;;3.85;;
79015;SDS011;72726;44.842;37.556;2023-09-30T04:10:48;13.82;;;3.42;;
79015;SDS011;72726;44.842;37.556;2023-09-30T04:11:49;13.55;;;3.30;;
79015;SDS011;72726;44.842;37.556;2023-09-30T04:12:51;13.10;;;3.33;;
79015;SDS011;72726;44.842;37.556;2023-09-30T04:13:52;10.88;;;3.35;;
79015;SDS011;72726;44.842;37.556;2023-09-30T04:14:53;12.57;;;3.70;;
79015;SDS011;72726;44.842;37.556;2023-09-30T04:15:55;11.95;;;3.05;;
79015;SDS011;72726;44.842;37.556;2023-09-30T04:16:59;10.98;;;3.47;;
79015;SDS011;72726;44.842;37.556;2023-09-30T04:18:00;15.07;;;3.63;;
79015;SDS011;72726;44.842;37.556;2023-09-30T04:19:01;8.68;;;3.40;;
79015;SDS011;72726;44.842;37.556;2023-09-30T04:20:03;10.70;;;3.50;;
79015;SDS011;72726;44.842;37.556;2023-09-30T04:21:08;10.70;;;3.40;;
79015;SDS011;72726;44.842;37.556;2023-09-30T04:22:09;12.00;;;3.30;;
79015;SDS011;72726;44.842;37.556;2023-09-30T04:23:11;8.60;;;3.53;;
79015;SDS011;72726;44.842;37.556;2023-09-30T04:24:13;12.40;;;3.25;;
79015;SDS011;72726;44.842;37.556;2023-09-30T04:25:14;11.48;;;3.60;;
79015;SDS011;72726;44.842;37.556;2023-09-30T04:26:19;9.80;;;3.83;;
79015;SDS011;72726;44.842;37.556;2023-09-30T04:27:21;9.27;;;3.35;;
79015;SDS011;72726;44.842;37.556;2023-09-30T04:28:22;10.80;;;3.13;;
79015;SDS011;72726;44.842;37.556;2023-09-30T04:29:25;14.73;;;3.25;;
79015;SDS011;72726;44.842;37.556;2023-09-30T04:30:26;11.60;;;3.17;;
79015;SDS011;72726;44.842;37.556;2023-09-30T04:31:28;9.88;;;3.13;;
79015;SDS011;72726;44.842;37.556;2023-09-30T04:32:29;11.68;;;3.65;;
79015;SDS011;72726;44.842;37.556;2023-09-30T04:33:30;10.82;;;3.90;;
79015;SDS011;72726;44.842;37.556;2023-09-30T04:34:32;13.73;;;3.30;;
79015;SDS011;72726;44.842;37.556;2023-09-30T04:35:34;9.60;;;3.28;;
79015;SDS011;72726;44.842;37.556;2023-09-30T04:36:36;19.77;;;3.83;;
79015;SDS011;72726;44.842;37.556;2023-09-30T04:37:37;10.80;;;3.80;;
79015;SDS011;72726;44.842;37.556;2023-09-30T04:38:39;16.00;;;3.60;;
79015;SDS011;72726;44.842;37.556;2023-09-30T04:39:40;10.07;;;3.05;;
79015;SDS011;72726;44.842;37.556;2023-09-30T04:40:41;12.68;;;4.22;;
79015;SDS011;72726;44.842;37.556;2023-09-30T04:41:45;9.35;;;3.17;;
79015;SDS011;72726;44.842;37.556;2023-09-30T04:42:47;14.75;;;3.88;;
79015;SDS011;72726;44.842;37.556;2023-09-30T04:43:49;12.77;;;3.75;;
79015;SDS011;72726;44.842;37.556;2023-09-30T04:44:50;8.48;;;3.40;;
79015;SDS011;72726;44.842;37.556;2023-09-30T04:45:52;12.95;;;3.58;;
79015;SDS011;72726;44.842;37.556;2023-09-30T04:46:53;15.32;;;2.97;;
79015;SDS011;72726;44.842;37.556;2023-09-30T04:47:56;15.18;;;3.45;;
79015;SDS011;72726;44.842;37.556;2023-09-30T04:48:58;13.20;;;3.25;;
79015;SDS011;72726;44.842;37.556;2023-09-30T04:49:59;8.77;;;3.05;;
79015;SDS011;72726;44.842;37.556;2023-09-30T04:51:05;10.65;;;3.45;;
79015;SDS011;72726;44.842;37.556;2023-09-30T04:52:07;8.95;;;3.15;;
79015;SDS011;72726;44.842;37.556;2023-09-30T04:53:08;10.43;;;3.30;;
79015;SDS011;72726;44.842;37.556;2023-09-30T04:54:10;11.52;;;3.38;;
79015;SDS011;72726;44.842;37.556;2023-09-30T04:55:11;9.85;;;3.45;;
79015;SDS011;72726;44.842;37.556;2023-09-30T04:56:13;12.18;;;3.67;;
79015;SDS011;72726;44.842;37.556;2023-09-30T04:57:14;9.43;;;3.33;;
79015;SDS011;72726;44.842;37.556;2023-09-30T04:58:16;13.65;;;3.65;;
79015;SDS011;72726;44.842;37.556;2023-09-30T04:59:17;9.52;;;3.17;;
79015;SDS011;72726;44.842;37.556;2023-09-30T05:00:19;15.40;;;3.78;;
79015;SDS011;72726;44.842;37.556;2023-09-30T05:01:25;12.32;;;3.38;;
79015;SDS011;72726;44.842;37.556;2023-09-30T05:02:27;9.63;;;3.15;;
79015;SDS011;72726;44.842;37.556;2023-09-30T05:03:28;11.60;;;3.50;;
79015;SDS011;72726;44.842;37.556;2023-09-30T05:04:29;8.10;;;3.30;;
79015;SDS011;72726;44.842;37.556;2023-09-30T05:05:30;10.75;;;3.20;;
79015;SDS011;72726;44.842;37.556;2023-09-30T05:06:32;11.82;;;3.30;;
79015;SDS011;72726;44.842;37.556;2023-09-30T05:07:33;11.20;;;3.10;;
79015;SDS011;72726;44.842;37.556;2023-09-30T05:08:34;10.93;;;3.35;;
79015;SDS011;72726;44.842;37.556;2023-09-30T05:09:36;15.88;;;4.60;;
79015;SDS011;72726;44.842;37.556;2023-09-30T05:10:37;12.02;;;3.67;;
79015;SDS011;72726;44.842;37.556;2023-09-30T05:11:39;13.40;;;3.58;;
79015;SDS011;72726;44.842;37.556;2023-09-30T05:12:40;12.18;;;3.78;;
79015;SDS011;72726;44.842;37.556;2023-09-30T05:13:46;9.88;;;3.40;;
79015;SDS011;72726;44.842;37.556;2023-09-30T05:14:47;11.52;;;3.45;;
79015;SDS011;72726;44.842;37.556;2023-09-30T05:15:49;10.00;;;3.53;;
79015;SDS011;72726;44.842;37.556;2023-09-30T05:16:52;8.43;;;3.30;;
79015;SDS011;72726;44.842;37.556;2023-09-30T05:17:53;11.23;;;3.72;;
79015;SDS011;72726;44.842;37.556;2023-09-30T05:18:57;15.88;;;3.83;;
79015;SDS011;72726;44.842;37.556;2023-09-30T05:19:58;9.20;;;3.60;;
79015;SDS011;72726;44.842;37.556;2023-09-30T05:21:00;20.17;;;3.70;;
79015;SDS011;72726;44.842;37.556;2023-09-30T05:22:01;10.77;;;3.40;;
79015;SDS011;72726;44.842;37.556;2023-09-30T05:23:06;7.45;;;3.22;;
79015;SDS011;72726;44.842;37.556;2023-09-30T05:24:13;11.90;;;3.47;;
79015;SDS011;72726;44.842;37.556;2023-09-30T05:25:16;9.15;;;3.60;;
79015;SDS011;72726;44.842;37.556;2023-09-30T05:26:20;9.55;;;3.63;;
79015;SDS011;72726;44.842;37.556;2023-09-30T05:27:22;10.85;;;3.80;;
79015;SDS011;72726;44.842;37.556;2023-09-30T05:28:23;9.73;;;3.28;;
79015;SDS011;72726;44.842;37.556;2023-09-30T05:29:24;10.73;;;4.25;;
79015;SDS011;72726;44.842;37.556;2023-09-30T05:30:28;9.60;;;3.25;;
79015;SDS011;72726;44.842;37.556;2023-09-30T05:31:35;10.32;;;3.40;;
79015;SDS011;72726;44.842;37.556;2023-09-30T05:32:38;10.73;;;4.05;;
79015;SDS011;72726;44.842;37.556;2023-09-30T05:33:40;15.55;;;3.88;;
79015;SDS011;72726;44.842;37.556;2023-09-30T05:34:41;12.10;;;3.65;;
79015;SDS011;72726;44.842;37.556;2023-09-30T05:35:43;15.00;;;3.90;;
79015;SDS011;72726;44.842;37.556;2023-09-30T05:36:44;13.43;;;3.90;;
79015;SDS011;72726;44.842;37.556;2023-09-30T05:37:45;14.55;;;3.67;;
79015;SDS011;72726;44.842;37.556;2023-09-30T05:38:46;13.32;;;3.75;;
79015;SDS011;72726;44.842;37.556;2023-09-30T05:39:48;14.50;;;4.13;;
79015;SDS011;72726;44.842;37.556;2023-09-30T05:40:52;8.82;;;3.67;;
79015;SDS011;72726;44.842;37.556;2023-09-30T05:41:53;11.98;;;3.80;;
79015;SDS011;72726;44.842;37.556;2023-09-30T05:42:58;11.90;;;4.22;;
79015;SDS011;72726;44.842;37.556;2023-09-30T05:44:00;10.50;;;3.75;;
79015;SDS011;72726;44.842;37.556;2023-09-30T05:45:01;8.90;;;3.83;;
79015;SDS011;72726;44.842;37.556;2023-09-30T05:46:05;16.30;;;4.45;;
79015;SDS011;72726;44.842;37.556;2023-09-30T05:47:07;13.45;;;3.88;;
79015;SDS011;72726;44.842;37.556;2023-09-30T05:48:09;18.83;;;4.38;;
79015;SDS011;72726;44.842;37.556;2023-09-30T05:49:11;9.52;;;3.97;;
79015;SDS011;72726;44.842;37.556;2023-09-30T05:50:14;9.23;;;3.65;;
79015;SDS011;72726;44.842;37.556;2023-09-30T05:51:16;11.88;;;4.13;;
79015;SDS011;72726;44.842;37.556;2023-09-30T05:52:19;14.68;;;4.38;;
79015;SDS011;72726;44.842;37.556;2023-09-30T05:53:20;10.13;;;3.75;;
79015;SDS011;72726;44.842;37.556;2023-09-30T05:54:21;10.77;;;4.07;;
79015;SDS011;72726;44.842;37.556;2023-09-30T05:55:23;11.88;;;3.92;;
79015;SDS011;72726;44.842;37.556;2023-09-30T05:56:28;10.55;;;3.45;;
79015;SDS011;72726;44.842;37.556;2023-09-30T05:57:29;14.77;;;4.07;;
79015;SDS011;72726;44.842;37.556;2023-09-30T05:58:31;9.70;;;3.90;;
79015;SDS011;72726;44.842;37.556;2023-09-30T05:59:32;11.38;;;4.10;;
79015;SDS011;72726;44.842;37.556;2023-09-30T06:00:34;11.10;;;3.75;;
79015;SDS011;72726;44.842;37.556;2023-09-30T06:01:36;7.85;;;3.40;;
79015;SDS011;72726;44.842;37.556;2023-09-30T06:02:37;14.18;;;3.67;;
79015;SDS011;72726;44.842;37.556;2023-09-30T06:03:38;11.05;;;3.97;;
79015;SDS011;72726;44.842;37.556;2023-09-30T06:04:43;12.30;;;4.10;;
79015;SDS011;72726;44.842;37.556;2023-09-30T06:05:47;8.25;;;3.70;;
79015;SDS011;72726;44.842;37.556;2023-09-30T06:06:49;9.63;;;3.90;;
79015;SDS011;72726;44.842;37.556;2023-09-30T06:07:50;10.85;;;4.20;;
79015;SDS011;72726;44.842;37.556;2023-09-30T06:08:52;11.40;;;3.70;;
79015;SDS011;72726;44.842;37.556;2023-09-30T06:09:54;14.68;;;4.00;;
79015;SDS011;72726;44.842;37.556;2023-09-30T06:10:55;10.13;;;3.88;;
79015;SDS011;72726;44.842;37.556;2023-09-30T06:11:59;10.10;;;4.13;;
79015;SDS011;72726;44.842;37.556;2023-09-30T06:13:04;11.98;;;3.90;;
79015;SDS011;72726;44.842;37.556;2023-09-30T06:14:06;13.88;;;3.75;;
79015;SDS011;72726;44.842;37.556;2023-09-30T06:15:11;10.32;;;3.67;;
79015;SDS011;72726;44.842;37.556;2023-09-30T06:16:14;12.43;;;4.10;;
79015;SDS011;72726;44.842;37.556;2023-09-30T06:17:17;14.50;;;3.97;;
79015;SDS011;72726;44.842;37.556;2023-09-30T06:18:18;9.45;;;3.58;;